Time;durP1;ratioP1;P1;durP2;ratioP2;P2;SDS_P1;SDS_P2;PMS_P1;PMS_P2;Temp;Humidity;BMP_temperature;BMP_pressure;BME280_temperature;BME280_humidity;BME280_pressure;Samples;Min_cycle;Max_cycle;Signal;HPM_P1;HPM_P2
2022/09/05 00:00:18;;;;;;;37.28;31.35;;;18.10;99.90;;;;;;4843387;29;20046;-77
2022/09/05 00:03:02;;;;;;;38.58;33.83;;;18.10;99.90;;;;;;4904973;29;20042;-76
2022/09/05 00:05:52;;;;;;;39.10;34.67;;;18.10;99.90;;;;;;4958694;28;20213;-75
2022/09/05 00:08:31;;;;;;;39.90;33.78;;;18.10;99.90;;;;;;4977853;28;20054;-74
2022/09/05 00:11:09;;;;;;;38.63;33.67;;;18.10;99.90;;;;;;5016305;28;20030;-76
2022/09/05 00:13:39;;;;;;;39.50;34.47;;;18.00;99.90;;;;;;5015837;28;20100;-75
2022/09/05 00:16:42;;;;;;;45.85;36.53;;;17.90;99.90;;;;;;5006542;28;20030;-75
2022/09/05 00:19:14;;;;;;;;;;;17.90;99.90;;;;;;5003586;28;20485;-75
2022/09/05 00:22:03;;;;;;;41.90;34.53;;;17.90;99.90;;;;;;5015985;28;19909;-75
2022/09/05 00:24:38;;;;;;;42.25;36.03;;;17.90;99.90;;;;;;5016074;28;20038;-73
2022/09/05 00:27:16;;;;;;;43.05;37.03;;;17.90;99.90;;;;;;5016062;28;20026;-75
2022/09/05 00:30:04;;;;;;;39.17;33.70;;;17.90;99.90;;;;;;5015665;28;20113;-75
2022/09/05 00:32:48;;;;;;;40.17;33.92;;;17.90;99.90;;;;;;5015562;28;20022;-76
2022/09/05 00:35:32;;;;;;;39.53;32.95;;;17.90;99.90;;;;;;5015557;28;20033;-75
2022/09/05 00:38:11;;;;;;;39.45;35.13;;;17.80;99.90;;;;;;5015696;28;20034;-76
2022/09/05 00:40:46;;;;;;;40.63;34.28;;;17.80;99.90;;;;;;5015615;28;20042;-76
2022/09/05 00:43:28;;;;;;;41.63;35.78;;;17.90;99.90;;;;;;5015797;28;20029;-74
2022/09/05 00:46:13;;;;;;;41.60;36.47;;;17.80;99.90;;;;;;5015756;28;20021;-76
2022/09/05 00:48:51;;;;;;;38.45;31.88;;;17.80;99.90;;;;;;5015337;28;20440;-76
2022/09/05 00:51:31;;;;;;;39.33;32.70;;;17.80;99.90;;;;;;5015215;28;20037;-76
2022/09/05 00:54:24;;;;;;;45.92;35.90;;;17.70;99.90;;;;;;5015523;28;20080;-76
2022/09/05 00:56:56;;;;;;;33.72;27.15;;;17.60;99.90;;;;;;5015523;28;20392;-73
2022/09/05 00:59:43;;;;;;;43.47;35.47;;;17.60;99.90;;;;;;5015442;28;20532;-74
2022/09/05 01:02:18;;;;;;;45.10;37.05;;;17.60;99.90;;;;;;5015400;28;20022;-75
2022/09/05 01:04:49;;;;;;;44.50;39.38;;;17.70;99.90;;;;;;5015011;28;20112;-75
2022/09/05 01:07:27;;;;;;;46.75;38.22;;;17.70;99.90;;;;;;5015220;28;20105;-75
2022/09/05 01:10:02;;;;;;;47.83;39.00;;;17.70;99.90;;;;;;5015121;28;20100;-75
2022/09/05 01:12:51;;;;;;;39.97;35.17;;;17.70;99.90;;;;;;5013533;28;20026;-75
2022/09/05 01:16:05;;;;;;;40.42;33.63;;;17.70;99.90;;;;;;5014795;28;20473;-75
2022/09/05 01:18:36;;;;;;;37.03;32.45;;;17.70;99.90;;;;;;4954058;29;20086;-75
2022/09/05 01:21:26;;;;;;;36.03;31.52;;;17.70;99.90;;;;;;4953467;29;20027;-75
2022/09/05 01:24:25;;;;;;;40.28;34.58;;;17.60;99.90;;;;;;4954325;29;20492;-75
2022/09/05 01:27:11;;;;;;;42.17;37.10;;;17.60;99.90;;;;;;4938320;29;20453;-75
2022/09/05 01:29:45;;;;;;;43.83;38.08;;;17.60;99.90;;;;;;4953728;29;20035;-74
2022/09/05 01:32:28;;;;;;;42.15;36.15;;;17.60;99.90;;;;;;4967935;28;20031;-74
2022/09/05 01:35:12;;;;;;;;;;;17.60;99.90;;;;;;4954445;29;20047;-75
2022/09/05 01:37:51;;;;;;;43.38;36.88;;;17.60;99.90;;;;;;4954034;29;20373;-75
2022/09/05 01:40:29;;;;;;;40.28;34.50;;;17.50;99.90;;;;;;4954126;29;20414;-76
2022/09/05 01:43:01;;;;;;;41.50;35.97;;;17.50;99.90;;;;;;4959353;28;20043;-73
2022/09/05 01:45:48;;;;;;;45.63;39.10;;;17.40;99.90;;;;;;4954054;29;20065;-75
2022/09/05 01:48:46;;;;;;;44.30;38.85;;;17.40;99.90;;;;;;4942528;28;20405;-76
2022/09/05 01:51:19;;;;;;;46.97;38.58;;;17.40;99.90;;;;;;4896849;29;20096;-74
2022/09/05 01:53:57;;;;;;;38.35;32.35;;;17.30;99.90;;;;;;4885509;29;20109;-75
2022/09/05 01:56:23;;;;;;;51.42;36.05;;;17.10;99.90;;;;;;4934253;29;20635;-74
2022/09/05 01:59:02;;;;;;;42.03;37.08;;;17.10;99.90;;;;;;4942230;29;20035;-75
2022/09/05 02:01:46;;;;;;;46.08;38.85;;;17.20;99.90;;;;;;4943559;28;20048;-75
2022/09/05 02:04:36;;;;;;;46.70;41.00;;;17.20;99.90;;;;;;4951813;28;20035;-74
2022/09/05 02:07:31;;;;;;;45.33;40.42;;;17.20;99.90;;;;;;4934655;29;20031;-75
2022/09/05 02:10:34;;;;;;;43.65;38.90;;;17.20;99.90;;;;;;4922105;29;20092;-75
2022/09/05 02:13:17;;;;;;;45.28;39.78;;;17.30;99.90;;;;;;4934245;29;20541;-75
2022/09/05 02:15:47;;;;;;;45.90;41.00;;;17.30;99.90;;;;;;4943369;29;20457;-75
2022/09/05 02:18:22;;;;;;;48.50;38.78;;;17.30;99.90;;;;;;4934051;29;20040;-73
2022/09/05 02:20:59;;;;;;;41.63;37.08;;;17.30;99.90;;;;;;4933915;29;20094;-74
2022/09/05 02:23:39;;;;;;;47.03;39.58;;;17.30;99.90;;;;;;4933930;29;20110;-74
2022/09/05 02:26:17;;;;;;;45.42;40.38;;;17.30;99.90;;;;;;4934191;29;20036;-74
2022/09/05 02:28:59;;;;;;;39.00;33.67;;;17.30;99.90;;;;;;4983629;28;20100;-73
2022/09/05 02:31:24;;;;;;;48.17;39.80;;;17.30;99.90;;;;;;5013614;28;20034;-75
2022/09/05 02:34:14;;;;;;;45.38;39.50;;;17.30;99.90;;;;;;5013632;28;20392;-75
2022/09/05 02:37:05;;;;;;;42.83;37.85;;;17.30;99.90;;;;;;5013501;28;20042;-73
2022/09/05 02:39:45;;;;;;;42.08;36.40;;;17.30;99.90;;;;;;5013387;28;20387;-75
2022/09/05 02:42:49;;;;;;;42.75;37.25;;;17.30;99.90;;;;;;5013533;28;20053;-74
2022/09/05 02:45:26;;;;;;;42.65;35.45;;;17.30;99.90;;;;;;4952688;29;20509;-75
2022/09/05 02:47:54;;;;;;;43.72;38.72;;;17.30;99.90;;;;;;4952719;28;20043;-75
2022/09/05 02:51:17;;;;;;;42.70;35.97;;;17.30;99.90;;;;;;4952918;29;20162;-75
2022/09/05 02:53:50;;;;;;;44.17;36.23;;;17.30;99.90;;;;;;4877374;29;20041;-72
2022/09/05 02:56:29;;;;;;;37.90;33.83;;;17.20;99.90;;;;;;4881914;29;20043;-74
2022/09/05 02:59:01;;;;;;;41.10;35.45;;;17.10;99.90;;;;;;4883090;29;20048;-75
2022/09/05 03:01:45;;;;;;;46.13;39.45;;;17.00;99.90;;;;;;4876754;29;20044;-75
2022/09/05 03:04:26;;;;;;;43.88;35.83;;;17.00;99.90;;;;;;4876922;29;20427;-74
2022/09/05 03:07:22;;;;;;;45.83;39.13;;;16.90;99.90;;;;;;4876704;29;20069;-75
2022/09/05 03:10:17;;;;;;;43.92;37.58;;;16.90;99.90;;;;;;4876446;29;20041;-74
2022/09/05 03:12:51;;;;;;;35.47;31.08;;;16.90;99.90;;;;;;4876859;29;20066;-75
2022/09/05 03:15:35;;;;;;;41.15;33.17;;;16.80;99.90;;;;;;4876349;29;20041;-74
2022/09/05 03:18:38;;;;;;;40.50;35.33;;;16.80;99.90;;;;;;4876415;29;20056;-75
2022/09/05 03:21:16;;;;;;;;;;;16.80;99.90;;;;;;4876905;29;20073;-74
2022/09/05 03:24:21;;;;;;;40.45;33.35;;;16.80;99.90;;;;;;4956785;28;19913;-75
2022/09/05 03:27:09;;;;;;;42.80;36.22;;;16.80;99.90;;;;;;5013003;28;20022;-74
2022/09/05 03:29:47;;;;;;;44.08;39.17;;;16.70;99.90;;;;;;5012548;28;20037;-72
2022/09/05 03:32:35;;;;;;;47.85;41.58;;;16.70;99.90;;;;;;5012407;28;20075;-75
2022/09/05 03:35:32;;;;;;;55.40;42.70;;;16.80;99.90;;;;;;5012409;28;20030;-74
2022/09/05 03:38:50;;;;;;;51.55;45.88;;;16.80;99.90;;;;;;5012701;28;20384;-75
2022/09/05 03:41:28;;;;;;;58.05;47.47;;;16.70;99.90;;;;;;5012398;28;20045;-75
2022/09/05 03:44:23;;;;;;;65.65;48.83;;;16.70;99.90;;;;;;5012480;28;20115;-75
2022/09/05 03:47:17;;;;;;;69.50;49.17;;;16.60;99.90;;;;;;5012164;28;20033;-74
2022/09/05 03:50:05;;;;;;;71.45;45.80;;;16.60;99.90;;;;;;5012084;28;20045;-74
2022/09/05 03:52:58;;;;;;;67.38;46.08;;;16.60;99.90;;;;;;5011925;28;20038;-75
2022/09/05 03:55:58;;;;;;;61.45;44.63;;;16.50;99.90;;;;;;5012424;28;20040;-74
2022/09/05 03:58:48;;;;;;;71.53;47.33;;;16.60;99.90;;;;;;5012269;28;20026;-74
2022/09/05 04:01:23;;;;;;;55.35;44.28;;;16.50;99.90;;;;;;5012383;28;20048;-75
2022/09/05 04:03:58;;;;;;;59.20;46.88;;;16.50;99.90;;;;;;5011981;28;20545;-75
2022/09/05 04:06:49;;;;;;;58.53;46.00;;;16.40;99.90;;;;;;5012083;28;20029;-75
2022/09/05 04:09:37;;;;;;;50.13;43.35;;;16.40;99.90;;;;;;5012192;28;20030;-75
2022/09/05 04:12:16;;;;;;;53.83;44.95;;;16.50;99.90;;;;;;5012049;28;20068;-75
2022/09/05 04:14:45;;;;;;;75.57;64.05;;;16.50;99.90;;;;;;5011504;28;20029;-75
2022/09/05 04:17:24;;;;;;;68.05;54.58;;;16.50;99.90;;;;;;5010966;28;20032;-73
2022/09/05 04:20:02;;;;;;;68.85;55.38;;;16.50;99.90;;;;;;5010579;28;20042;-69
2022/09/05 04:22:40;;;;;;;64.72;53.22;;;16.40;99.90;;;;;;5011435;28;20022;-73
2022/09/05 04:25:11;;;;;;;58.05;47.10;;;16.50;99.90;;;;;;4996635;28;20469;-68
2022/09/05 04:28:12;;;;;;;57.00;47.63;;;16.50;99.90;;;;;;5000878;28;20034;-70
2022/09/05 04:30:46;;;;;;;55.10;46.05;;;16.60;99.90;;;;;;4994292;28;20077;-73
2022/09/05 04:33:24;;;;;;;52.42;45.25;;;16.60;99.90;;;;;;4994351;28;20102;-75
2022/09/05 04:36:13;;;;;;;53.47;45.50;;;16.70;99.90;;;;;;4995777;28;20030;-74
2022/09/05 04:38:42;;;;;;;50.60;43.08;;;16.70;99.90;;;;;;5003292;28;20026;-72
2022/09/05 04:41:25;;;;;;;57.70;44.47;;;16.80;99.90;;;;;;4994314;28;20023;-75
2022/09/05 04:43:58;;;;;;;54.20;44.58;;;16.80;99.90;;;;;;4998207;28;20508;-75
2022/09/05 04:46:24;;;;;;;57.35;44.25;;;16.80;99.90;;;;;;4996844;28;20033;-74
2022/09/05 04:48:55;;;;;;;61.95;48.25;;;16.80;99.90;;;;;;5013939;28;20076;-74
2022/09/05 04:51:51;;;;;;;63.35;47.28;;;16.80;99.90;;;;;;5023033;28;20101;-73
2022/09/05 04:54:36;;;;;;;65.45;48.85;;;16.90;99.90;;;;;;5015945;28;20388;-74
2022/09/05 04:57:10;;;;;;;70.53;48.65;;;16.90;99.90;;;;;;5014405;28;20026;-74
2022/09/05 04:59:53;;;;;;;63.78;49.13;;;16.80;99.90;;;;;;5014799;28;20038;-72
2022/09/05 05:02:31;;;;;;;74.75;51.08;;;16.90;99.90;;;;;;5015061;28;20480;-74
2022/09/05 05:05:26;;;;;;;66.80;49.88;;;17.00;99.90;;;;;;5014008;28;20026;-74
2022/09/05 05:08:00;;;;;;;72.43;49.33;;;17.10;99.90;;;;;;4934877;29;20074;-73
2022/09/05 05:10:37;;;;;;;62.90;48.47;;;17.10;99.90;;;;;;4935224;29;20047;-72
2022/09/05 05:13:08;;;;;;;68.90;48.90;;;17.20;99.90;;;;;;4935061;29;20059;-74
2022/09/05 05:16:03;;;;;;;61.20;49.50;;;17.30;99.90;;;;;;4934730;29;20035;-74
2022/09/05 05:18:54;;;;;;;64.10;48.38;;;17.40;99.90;;;;;;4934493;29;20282;-73
2022/09/05 05:21:25;;;;;;;62.33;48.72;;;17.40;99.90;;;;;;4934643;29;20134;-75
2022/09/05 05:23:57;;;;;;;60.13;46.50;;;17.60;99.90;;;;;;4934528;29;20036;-75
2022/09/05 05:26:25;;;;;;;56.83;45.67;;;17.80;99.90;;;;;;4935386;29;20074;-75
2022/09/05 05:29:22;;;;;;;55.88;43.58;;;17.70;99.90;;;;;;4934512;29;20498;-74
2022/09/05 05:31:53;;;;;;;63.53;45.95;;;18.00;99.90;;;;;;4878395;29;20128;-74
2022/09/05 05:34:23;;;;;;;56.58;43.08;;;18.20;99.90;;;;;;4865232;29;20077;-74
2022/09/05 05:36:56;;;;;;;52.83;44.13;;;18.40;99.90;;;;;;4877299;29;20139;-74
2022/09/05 05:39:27;;;;;;;52.40;44.13;;;18.50;99.90;;;;;;4878005;29;20056;-75
2022/09/05 05:41:57;;;;;;;48.40;40.63;;;18.80;99.90;;;;;;4878159;29;20128;-75
2022/09/05 05:44:29;;;;;;;47.92;40.13;;;18.90;99.90;;;;;;4902383;28;20420;-75
2022/09/05 05:46:58;;;;;;;43.17;38.15;;;19.00;99.90;;;;;;4972747;28;20538;-75
2022/09/05 05:49:45;;;;;;;46.17;39.80;;;19.10;99.90;;;;;;4972545;28;20055;-74
2022/09/05 05:52:31;;;;;;;48.80;40.22;;;19.00;99.90;;;;;;4972359;28;20034;-74
2022/09/05 05:55:05;;;;;;;45.08;36.38;;;19.10;99.90;;;;;;4972812;28;20054;-75
2022/09/05 05:57:45;;;;;;;43.28;36.50;;;19.10;99.90;;;;;;4972802;28;20177;-75
2022/09/05 06:00:36;;;;;;;41.53;34.28;;;19.20;99.90;;;;;;4972728;28;20505;-72
2022/09/05 06:03:43;;;;;;;43.17;35.28;;;19.20;99.90;;;;;;4972616;28;20038;-74
2022/09/05 06:06:30;;;;;;;38.97;34.63;;;19.10;99.90;;;;;;4967847;28;20526;-74
2022/09/05 06:09:14;;;;;;;36.75;32.63;;;19.10;99.90;;;;;;5006398;28;20045;-75
2022/09/05 06:12:20;;;;;;;39.30;32.92;;;19.30;99.90;;;;;;5014027;28;20045;-75
2022/09/05 06:15:15;;;;;;;42.40;33.55;;;19.60;99.90;;;;;;4952616;29;20130;-75
2022/09/05 06:18:08;;;;;;;35.50;31.73;;;19.70;99.90;;;;;;4877014;29;20073;-75
2022/09/05 06:21:11;;;;;;;38.20;33.40;;;19.70;99.90;;;;;;4877263;29;20115;-73
2022/09/05 06:24:18;;;;;;;37.55;32.80;;;19.80;99.90;;;;;;4877246;29;20039;-75
2022/09/05 06:26:58;;;;;;;37.08;33.03;;;20.00;99.90;;;;;;4803663;29;20046;-74
2022/09/05 06:29:49;;;;;;;39.22;34.30;;;20.20;99.90;;;;;;4803686;29;20478;-74
2022/09/05 06:32:43;;;;;;;33.58;30.08;;;20.30;99.90;;;;;;4803688;29;20057;-74
2022/09/05 06:35:12;;;;;;;34.55;29.27;;;20.60;99.90;;;;;;4804007;29;20130;-73
2022/09/05 06:38:15;;;;;;;37.15;32.22;;;20.60;99.90;;;;;;4803796;29;20419;-74
2022/09/05 06:40:46;;;;;;;32.08;27.42;;;20.60;99.90;;;;;;4803873;29;20043;-76
2022/09/05 06:43:26;;;;;;;31.67;26.85;;;21.00;99.90;;;;;;4803536;29;20100;-73
2022/09/05 06:46:29;;;;;;;30.15;26.85;;;21.20;99.90;;;;;;4803565;29;20045;-74
2022/09/05 06:49:05;;;;;;;33.10;27.75;;;21.40;99.90;;;;;;4749112;30;20129;-74
2022/09/05 06:51:57;;;;;;;32.13;27.88;;;21.40;99.90;;;;;;4761995;30;20415;-75
2022/09/05 06:54:52;;;;;;;30.77;27.48;;;21.80;99.90;;;;;;4817368;29;20052;-73
2022/09/05 06:57:57;;;;;;;32.17;24.60;;;22.00;99.90;;;;;;4847083;29;20040;-75
2022/09/05 07:00:47;;;;;;;28.10;25.02;;;21.90;99.90;;;;;;4845534;29;20050;-73
2022/09/05 07:03:29;;;;;;;33.60;26.17;;;22.00;99.90;;;;;;4938987;29;20040;-72
2022/09/05 07:06:23;;;;;;;30.80;25.58;;;22.10;99.90;;;;;;4951895;29;20043;-73
2022/09/05 07:08:54;;;;;;;29.60;25.63;;;22.10;99.90;;;;;;4951030;29;20027;-75
2022/09/05 07:11:33;;;;;;;31.25;26.02;;;22.30;99.90;;;;;;4951452;29;20039;-73
2022/09/05 07:14:21;;;;;;;29.98;25.88;;;22.30;99.90;;;;;;4938854;29;20478;-72
2022/09/05 07:16:59;;;;;;;28.88;22.83;;;22.40;99.90;;;;;;4951279;28;20027;-74
2022/09/05 07:19:28;;;;;;;33.17;25.50;;;22.60;99.90;;;;;;4951279;29;20570;-74
2022/09/05 07:22:12;;;;;;;26.05;22.35;;;22.80;99.90;;;;;;4951329;29;20030;-75
2022/09/05 07:24:43;;;;;;;30.35;24.63;;;22.50;99.90;;;;;;4984799;28;20129;-75
2022/09/05 07:27:22;;;;;;;26.52;19.98;;;22.30;99.90;;;;;;5012765;28;20030;-74
2022/09/05 07:29:51;;;;;;;22.02;18.42;;;22.60;99.90;;;;;;5012431;28;20022;-73
2022/09/05 07:32:17;;;;;;;21.95;19.20;;;22.30;99.90;;;;;;5012282;28;20475;-74
2022/09/05 07:34:46;;;;;;;23.38;18.45;;;22.40;99.90;;;;;;5012229;28;20412;-72
2022/09/05 07:37:37;;;;;;;22.25;17.42;;;22.60;99.90;;;;;;5012613;28;20033;-74
2022/09/05 07:40:10;;;;;;;23.70;17.85;;;22.90;99.90;;;;;;5011578;28;20054;-74
2022/09/05 07:42:38;;;;;;;21.10;17.25;;;23.00;99.90;;;;;;5012757;28;20377;-74
2022/09/05 07:45:13;;;;;;;22.75;17.70;;;23.10;99.90;;;;;;5012509;28;20033;-74
2022/09/05 07:47:52;;;;;;;21.30;16.75;;;23.20;99.90;;;;;;5011848;28;20041;-75
2022/09/05 07:50:20;;;;;;;21.38;16.63;;;23.20;99.90;;;;;;5011981;28;20085;-72
2022/09/05 07:52:48;;;;;;;24.25;18.40;;;23.20;99.90;;;;;;5011973;28;20381;-75
2022/09/05 07:55:25;;;;;;;26.05;16.98;;;23.40;99.90;;;;;;5012608;28;20034;-74
2022/09/05 07:57:55;;;;;;;22.35;16.55;;;23.50;99.90;;;;;;5012095;28;20427;-75
2022/09/05 08:00:24;;;;;;;20.70;16.75;;;23.70;99.90;;;;;;4999644;28;20033;-73
2022/09/05 08:02:50;;;;;;;19.20;15.88;;;23.80;99.90;;;;;;5015981;28;20030;-74
2022/09/05 08:05:19;;;;;;;20.02;15.70;;;23.90;99.90;;;;;;5015675;28;20033;-73
2022/09/05 08:07:52;;;;;;;21.95;16.35;;;24.20;99.90;;;;;;5015889;28;20032;-75
2022/09/05 08:10:26;;;;;;;23.92;16.95;;;23.90;99.90;;;;;;5016086;28;20037;-75
2022/09/05 08:13:17;;;;;;;20.83;16.30;;;23.90;99.90;;;;;;5016288;28;20017;-75
2022/09/05 08:15:47;;;;;;;18.38;14.45;;;24.00;99.90;;;;;;4955171;29;20305;-75
2022/09/05 08:18:40;;;;;;;19.35;14.95;;;23.60;99.90;;;;;;4954353;29;20046;-74
2022/09/05 08:21:09;;;;;;;26.42;16.50;;;23.60;99.90;;;;;;4955244;29;20121;-74
2022/09/05 08:23:35;;;;;;;20.85;16.48;;;23.50;99.90;;;;;;4954809;29;20108;-74
2022/09/05 08:26:19;;;;;;;17.30;13.38;;;23.70;99.90;;;;;;4955377;29;20043;-74
2022/09/05 08:29:19;;;;;;;20.10;14.73;;;23.90;99.90;;;;;;4954926;29;20078;-73
2022/09/05 08:31:51;;;;;;;19.42;15.57;;;24.00;99.90;;;;;;4955319;29;20398;-75
2022/09/05 08:34:46;;;;;;;19.75;14.20;;;24.10;99.90;;;;;;4955045;29;20035;-75
2022/09/05 08:37:24;;;;;;;16.75;12.20;;;24.40;99.90;;;;;;4954716;29;20050;-74
2022/09/05 08:39:53;;;;;;;19.15;13.27;;;24.50;99.90;;;;;;4954277;29;20058;-74
2022/09/05 08:42:38;;;;;;;16.60;12.68;;;24.50;99.90;;;;;;4948706;29;20024;-74
2022/09/05 08:45:03;;;;;;;18.63;13.02;;;24.70;99.90;;;;;;4953425;29;20039;-74
2022/09/05 08:48:03;;;;;;;16.95;12.65;;;24.70;99.90;;;;;;4953806;29;20058;-75
2022/09/05 08:51:06;;;;;;;18.48;13.85;;;25.00;99.90;;;;;;4954272;29;20110;-74
2022/09/05 08:53:50;;;;;;;17.88;13.30;;;25.10;99.90;;;;;;5001169;28;20041;-75
2022/09/05 08:56:22;;;;;;;19.15;14.23;;;24.90;99.90;;;;;;5014516;28;20465;-76
2022/09/05 08:59:18;;;;;;;17.10;12.30;;;25.00;99.90;;;;;;5014691;28;20057;-75
2022/09/05 09:02:00;;;;;;;18.40;13.27;;;25.00;99.90;;;;;;5014596;28;20060;-74
2022/09/05 09:04:47;;;;;;;16.30;11.60;;;24.80;99.90;;;;;;5014439;28;20176;-75
2022/09/05 09:07:50;;;;;;;19.60;13.52;;;25.00;99.90;;;;;;5014503;28;20480;-76
2022/09/05 09:10:54;;;;;;;19.63;14.02;;;24.90;99.90;;;;;;5014447;28;20397;-75
2022/09/05 09:13:35;;;;;;;19.30;14.05;;;24.90;99.90;;;;;;4934338;29;20046;-76
2022/09/05 09:16:05;;;;;;;18.52;13.10;;;25.00;99.90;;;;;;4934889;29;20031;-76
2022/09/05 09:18:51;;;;;;;16.70;11.55;;;25.10;99.90;;;;;;4934307;29;20090;-75
2022/09/05 09:21:19;;;;;;;15.98;11.10;;;25.40;99.90;;;;;;4924586;29;20529;-76
2022/09/05 09:23:50;;;;;;;17.00;10.75;;;25.60;99.90;;;;;;4934084;29;20038;-75
2022/09/05 09:26:28;;;;;;;16.10;11.98;;;25.80;99.90;;;;;;4934334;29;20031;-76
2022/09/05 09:29:11;;;;;;;18.60;12.70;;;26.00;99.90;;;;;;4934257;29;20080;-71
2022/09/05 09:31:42;;;;;;;16.92;12.75;;;26.10;99.90;;;;;;4918350;29;20509;-76
2022/09/05 09:34:26;;;;;;;18.15;13.10;;;26.10;99.90;;;;;;4934091;29;20027;-76
2022/09/05 09:37:18;;;;;;;15.40;10.10;;;25.80;99.90;;;;;;4934127;29;20079;-75
2022/09/05 09:40:19;;;;;;;20.30;12.35;;;26.10;99.90;;;;;;4934161;29;20518;-75
2022/09/05 09:43:09;;;;;;;15.23;10.27;;;26.20;99.90;;;;;;4877805;29;20397;-76
2022/09/05 09:46:26;;;;;;;17.05;11.40;;;25.80;99.90;;;;;;4877992;29;20037;-75
2022/09/05 09:49:27;;;;;;;15.30;11.13;;;25.70;99.90;;;;;;4840800;29;20085;-74
2022/09/05 09:52:01;;;;;;;14.25;10.55;;;25.60;99.90;;;;;;4866948;29;20132;-74
2022/09/05 09:54:30;;;;;;;14.88;10.20;;;25.70;99.90;;;;;;4877747;29;20049;-76
2022/09/05 09:57:17;;;;;;;15.75;10.88;;;25.80;99.90;;;;;;4877664;29;20048;-75
2022/09/05 10:00:10;;;;;;;17.17;11.93;;;25.80;98.50;;;;;;4876930;29;20056;-75
2022/09/05 10:03:13;;;;;;;14.93;10.35;;;25.80;99.00;;;;;;4877523;29;20124;-76
2022/09/05 10:05:42;;;;;;;15.05;10.30;;;26.00;99.90;;;;;;4877656;29;20041;-76
2022/09/05 10:08:27;;;;;;;15.32;10.80;;;26.20;99.10;;;;;;4877537;29;20068;-76
2022/09/05 10:11:02;;;;;;;16.98;11.52;;;26.30;99.90;;;;;;4877361;29;20156;-76
2022/09/05 10:13:46;;;;;;;22.10;10.98;;;26.50;99.90;;;;;;4877213;29;20119;-75
2022/09/05 10:16:29;;;;;;;14.25;10.27;;;26.30;99.10;;;;;;4877119;29;20083;-74
2022/09/05 10:18:58;;;;;;;15.00;10.75;;;26.10;99.30;;;;;;4881122;29;20041;-75
2022/09/05 10:21:51;;;;;;;16.70;9.95;;;26.00;99.90;;;;;;4896013;29;20029;-75
2022/09/05 10:24:50;;;;;;;13.98;10.48;;;26.10;97.90;;;;;;4910899;29;20040;-76
2022/09/05 10:27:24;;;;;;;16.05;11.35;;;26.40;99.80;;;;;;4934093;29;20027;-75
2022/09/05 10:30:20;;;;;;;15.68;9.98;;;26.60;99.80;;;;;;5009216;28;20042;-76
2022/09/05 10:33:26;;;;;;;19.67;10.63;;;26.80;97.20;;;;;;5013335;28;20026;-77
2022/09/05 10:36:24;;;;;;;15.43;10.13;;;26.90;99.80;;;;;;5013496;28;20388;-76
2022/09/05 10:39:15;;;;;;;15.32;9.05;;;27.00;98.00;;;;;;5005475;28;20445;-76
2022/09/05 10:41:50;;;;;;;13.70;8.50;;;27.10;96.90;;;;;;5012960;28;20033;-76
2022/09/05 10:44:31;;;;;;;14.05;9.35;;;27.30;97.50;;;;;;5012962;28;20033;-76
2022/09/05 10:47:05;;;;;;;16.55;10.55;;;27.20;95.80;;;;;;5013223;28;20030;-74
2022/09/05 10:49:37;;;;;;;12.10;9.35;;;27.30;96.10;;;;;;5013082;28;20038;-77
2022/09/05 10:52:14;;;;;;;13.93;9.02;;;27.40;98.80;;;;;;5012625;28;20038;-75
2022/09/05 10:54:46;;;;;;;15.15;9.80;;;27.50;96.40;;;;;;5012984;28;20041;-76
2022/09/05 10:57:14;;;;;;;13.70;9.07;;;27.30;99.00;;;;;;5012938;28;20049;-75
2022/09/05 10:59:46;;;;;;;16.00;9.55;;;27.10;97.30;;;;;;5012392;28;20037;-76
2022/09/05 11:02:21;;;;;;;15.73;8.55;;;27.40;96.70;;;;;;5012974;28;20489;-76
2022/09/05 11:05:16;;;;;;;15.30;8.55;;;27.30;95.20;;;;;;5012741;28;20083;-76
2022/09/05 11:08:19;;;;;;;12.93;8.25;;;27.40;95.90;;;;;;5012681;28;20033;-77
2022/09/05 11:10:59;;;;;;;11.95;9.18;;;27.30;95.30;;;;;;4969809;28;20476;-75
2022/09/05 11:13:32;;;;;;;14.63;9.77;;;27.20;98.80;;;;;;4969648;28;20138;-77
2022/09/05 11:16:35;;;;;;;15.40;9.23;;;27.30;98.70;;;;;;4970768;28;20608;-75
2022/09/05 11:19:03;;;;;;;9.88;7.47;;;27.30;98.60;;;;;;4970916;28;20050;-76
2022/09/05 11:21:48;;;;;;;11.55;8.27;;;26.80;94.40;;;;;;4970497;28;20387;-77
2022/09/05 11:24:42;;;;;;;12.02;7.72;;;26.70;94.60;;;;;;4970693;28;20041;-74
2022/09/05 11:27:17;;;;;;;9.80;7.75;;;26.80;97.30;;;;;;4970008;28;20754;-76
2022/09/05 11:30:05;;;;;;;9.73;6.40;;;26.70;95.80;;;;;;4971046;28;20070;-76
2022/09/05 11:32:55;;;;;;;9.82;6.97;;;26.90;94.50;;;;;;4971067;28;20031;-76
2022/09/05 11:35:28;;;;;;;8.88;6.18;;;26.80;95.90;;;;;;4969645;28;20162;-76
2022/09/05 11:38:10;;;;;;;10.35;6.53;;;26.70;95.40;;;;;;4970221;28;20433;-76
2022/09/05 11:40:35;;;;;;;10.48;6.90;;;26.40;95.60;;;;;;4970766;28;20057;-75
2022/09/05 11:43:38;;;;;;;9.38;7.05;;;26.50;96.50;;;;;;4971200;28;20109;-75
2022/09/05 11:46:19;;;;;;;11.32;7.30;;;26.40;96.30;;;;;;4975228;28;20034;-76
2022/09/05 11:49:07;;;;;;;10.18;6.47;;;26.50;96.90;;;;;;5012170;28;20046;-72
2022/09/05 11:52:08;;;;;;;11.45;7.40;;;26.40;96.80;;;;;;5012184;28;20484;-76
2022/09/05 11:54:57;;;;;;;10.93;7.45;;;26.60;97.80;;;;;;5012213;28;20030;-76
2022/09/05 11:58:02;;;;;;;11.30;7.50;;;26.70;98.10;;;;;;5012653;28;20021;-77
2022/09/05 12:00:42;;;;;;;12.38;8.27;;;26.90;98.60;;;;;;5000119;28;20396;-76
2022/09/05 12:03:44;;;;;;;12.48;7.18;;;26.80;99.90;;;;;;5012330;28;20038;-76
2022/09/05 12:06:38;;;;;;;10.00;7.22;;;26.50;96.40;;;;;;5012094;28;20032;-76
2022/09/05 12:09:30;;;;;;;8.88;7.18;;;26.50;97.30;;;;;;5012288;28;20036;-76
2022/09/05 12:12:22;;;;;;;11.20;7.18;;;26.70;97.40;;;;;;5011721;28;20100;-75
2022/09/05 12:14:53;;;;;;;;;;;26.50;96.50;;;;;;5012565;28;20113;-76
2022/09/05 12:17:38;;;;;;;11.05;6.72;;;26.70;97.00;;;;;;4998960;28;19913;-75
2022/09/05 12:20:42;;;;;;;9.15;6.82;;;26.70;97.20;;;;;;5011869;28;20049;-76
2022/09/05 12:23:31;;;;;;;10.13;6.95;;;26.80;99.40;;;;;;5011765;28;20022;-76
2022/09/05 12:26:36;;;;;;;12.98;7.03;;;26.80;97.20;;;;;;5012063;28;20034;-76
2022/09/05 12:29:22;;;;;;;10.85;7.13;;;26.60;97.10;;;;;;4999804;28;20045;-76
2022/09/05 12:31:57;;;;;;;9.88;6.78;;;26.60;96.10;;;;;;5012091;28;20081;-76
2022/09/05 12:34:50;;;;;;;8.68;5.90;;;26.40;96.70;;;;;;5012339;28;20116;-76
2022/09/05 12:37:48;;;;;;;9.43;6.85;;;26.40;95.80;;;;;;5011910;28;20496;-75
2022/09/05 12:40:25;;;;;;;10.48;7.10;;;26.40;95.90;;;;;;5009431;28;20057;-76
2022/09/05 12:42:59;;;;;;;11.38;6.20;;;26.50;95.40;;;;;;5011905;28;20056;-76
2022/09/05 12:45:35;;;;;;;8.73;6.10;;;26.50;98.60;;;;;;5012032;28;20424;-76
2022/09/05 12:48:16;;;;;;;11.80;6.82;;;26.60;95.40;;;;;;5014434;28;20042;-76
2022/09/05 12:50:42;;;;;;;11.00;7.10;;;26.50;95.80;;;;;;5015553;28;20053;-76
2022/09/05 12:53:19;;;;;;;10.27;6.13;;;26.60;98.90;;;;;;5015141;28;20030;-75
2022/09/05 12:55:51;;;;;;;8.10;6.60;;;26.40;97.20;;;;;;5015428;28;20038;-77
2022/09/05 12:58:25;;;;;;;10.88;7.15;;;26.50;96.50;;;;;;5015053;28;20105;-77
2022/09/05 13:01:01;;;;;;;9.40;7.28;;;26.40;99.20;;;;;;5015395;28;20496;-76
2022/09/05 13:03:29;;;;;;;11.80;7.03;;;26.50;99.80;;;;;;5015051;28;20045;-76
2022/09/05 13:05:55;;;;;;;10.45;7.28;;;26.40;99.90;;;;;;5014664;28;20025;-76
2022/09/05 13:08:26;;;;;;;10.75;6.75;;;26.50;98.00;;;;;;5014755;28;20048;-76
2022/09/05 13:10:56;;;;;;;8.48;6.65;;;26.50;96.20;;;;;;5014657;28;20101;-76
2022/09/05 13:13:32;;;;;;;9.82;6.45;;;26.50;96.90;;;;;;5014348;28;20034;-76
2022/09/05 13:16:02;;;;;;;8.77;6.07;;;26.50;95.80;;;;;;5014677;28;20026;-74
2022/09/05 13:18:41;;;;;;;8.57;6.25;;;26.40;96.20;;;;;;5013336;28;20029;-77
2022/09/05 13:21:24;;;;;;;9.13;6.47;;;26.50;98.00;;;;;;5014283;28;20056;-76
2022/09/05 13:24:10;;;;;;;10.95;6.57;;;26.50;96.30;;;;;;5013995;28;20084;-76
2022/09/05 13:26:50;;;;;;;10.43;6.75;;;26.60;99.20;;;;;;5014451;28;20372;-76
2022/09/05 13:29:32;;;;;;;10.25;7.50;;;26.50;96.30;;;;;;5014794;28;20053;-76
2022/09/05 13:32:29;;;;;;;10.77;7.50;;;26.40;96.70;;;;;;5014880;28;20100;-75
2022/09/05 13:35:23;;;;;;;9.35;7.22;;;26.40;99.90;;;;;;5012501;28;20125;-76
2022/09/05 13:38:14;;;;;;;14.35;7.10;;;26.40;99.90;;;;;;5013086;28;20038;-76
2022/09/05 13:40:48;;;;;;;15.85;7.70;;;26.40;99.90;;;;;;5013952;28;20038;-76
2022/09/05 13:43:29;;;;;;;10.75;7.45;;;26.30;99.90;;;;;;5013382;28;20030;-73
2022/09/05 13:46:02;;;;;;;13.27;7.93;;;26.30;99.90;;;;;;5012406;28;20026;-73
2022/09/05 13:48:55;;;;;;;8.90;6.60;;;26.40;98.80;;;;;;5013042;28;20088;-73